Nearby METAR Reports

 

LGTS - Thessaloniki/Mik, Greece
Distance from station: ΔΝΔ 66km
Ενημερώθηκε: 23/11/2017 14:50
Αίθριος
Αίθριος
 Ανεμος από calm
Ανεμος: Απνοια
Θερμοκρασία: 16°C
Σημείο Δρόσου: 4°C
Υγρασία: 45%
Βαρόμετρο: 1019 hPa
Περίληψη: Αίθριος
Visibility: greater than 10 km
2017/11/23 12:50 LGTS 231250Z 00000KT CAVOK 16/04 Q1019 NOSIG
LGKV - Kavala/Chrisoupo, Greece
Distance from station: ΑΒΑ 80km
Ενημερώθηκε: 23/11/2017 14:50
Few Clouds
Few Clouds
 Ανεμος από ΝΝΔ
Ανεμος: ΝΝΔ 7 km/h
Θερμοκρασία: 16°C
Σημείο Δρόσου: 5°C
Υγρασία: 48%
Βαρόμετρο: 1019 hPa
Clouds: Few Clouds
Visibility: 10 km
Cloud details: Few Clouds 488 m
2017/11/23 12:50 LGKV 231250Z 21004KT 9999 FEW016 16/05 Q1019
LGLM - Limnos Island Ar, Greece
Distance from station: ΑΝΑ 157km
Ενημερώθηκε: 23/11/2017 14:50
Few Clouds
Few Clouds
 Ανεμος από Ν
Ανεμος: Ν 9 km/h
Θερμοκρασία: 17°C
Σημείο Δρόσου: 12°C
Υγρασία: 73%
Βαρόμετρο: 1020 hPa
Clouds: Few Clouds
Visibility: 10 km
Cloud details: Few Clouds 762 m
2017/11/23 12:50 LGLM 231250Z 17005KT 9999 FEW025 17/12 Q1020
 
LGKZ - Kozani (civ/Army, Greece
Distance from station: ΔΝΔ 165km
Ενημερώθηκε: 23/11/2017 14:50
Αίθριος
Αίθριος
 Ανεμος από calm
Ανεμος: Απνοια
Θερμοκρασία: 16°C
Σημείο Δρόσου: 3°C
Υγρασία: 42%
Βαρόμετρο: 1019 hPa
Περίληψη: Αίθριος
Visibility: greater than 10 km
2017/11/23 12:50 LGKZ 231250Z 00000KT CAVOK 16/03 Q1019
LGSK - Skiathos Island, Greece
Distance from station: Ν 171km
Ενημερώθηκε: 23/11/2017 14:50
Αίθριος
Αίθριος
 Ανεμος από Β
Ανεμος: Β 7 km/h
Θερμοκρασία: 16°C
Σημείο Δρόσου: 8°C
Υγρασία: 59%
Βαρόμετρο: 1020 hPa
Περίληψη: Αίθριος
Visibility: greater than 10 km
2017/11/23 12:50 LGSK 231250Z 01004KT CAVOK 16/08 Q1020
LBPD - Plovdiv, Bulgaria
Distance from station: ΒΒΑ 182km
Ενημερώθηκε: 23/11/2017 15:00
Αίθριος
Αίθριος
 Ανεμος από varies
Ανεμος: varies 4 km/h
Θερμοκρασία: 18°C
Σημείο Δρόσου: 6°C
Υγρασία: 46%
Βαρόμετρο: 1019 hPa
Clouds: Αίθριος
Visibility: 10 km
2017/11/23 13:00 LBPD 231300Z AUTO VRB02KT 9999 NCD 18/06 Q1019 NOSIG
 
LGBL - Nea Anchialos, Greece
Distance from station: ΝΝΔ 184km
Ενημερώθηκε: 23/11/2017 14:50
Αίθριος
Αίθριος
 Ανεμος από Α
Ανεμος: Α 7 km/h
Θερμοκρασία: 16°C
Σημείο Δρόσου: 5°C
Υγρασία: 48%
Βαρόμετρο: 1019 hPa
Περίληψη: Αίθριος
Visibility: greater than 10 km
2017/11/23 12:50 LGBL 231250Z 09004KT CAVOK 16/05 Q1019
LGAL - Alexandroupolis, Greece
Distance from station: Α 190km
Ενημερώθηκε: 23/11/2017 14:20
Few Clouds
Few Clouds
 Ανεμος από Ν
Ανεμος: Ν 7 km/h
Θερμοκρασία: 16°C
Σημείο Δρόσου: 9°C
Υγρασία: 63%
Βαρόμετρο: 1020 hPa
Clouds: Few Clouds
Visibility: 10 km
Cloud details: Few Clouds 610 m
2017/11/23 12:20 LGAL 231220Z 19004KT 9999 FEW020 16/09 Q1020